sensor_id;sensor_type;location;lat;lon;timestamp;P1;durP1;ratioP1;P2;durP2;ratioP2
23266;SDS011;11802;53.160;8.214;2023-04-03T00:02:05;2.93;;;1.60;;
23266;SDS011;11802;53.160;8.214;2023-04-03T00:04:30;7.33;;;1.83;;
23266;SDS011;11802;53.160;8.214;2023-04-03T00:06:56;5.23;;;1.70;;
23266;SDS011;11802;53.160;8.214;2023-04-03T00:09:21;9.07;;;2.27;;
23266;SDS011;11802;53.160;8.214;2023-04-03T00:11:47;7.10;;;2.17;;
23266;SDS011;11802;53.160;8.214;2023-04-03T00:14:12;4.87;;;2.00;;
23266;SDS011;11802;53.160;8.214;2023-04-03T00:16:38;3.77;;;1.70;;
23266;SDS011;11802;53.160;8.214;2023-04-03T00:19:03;6.63;;;1.93;;
23266;SDS011;11802;53.160;8.214;2023-04-03T00:21:30;6.83;;;2.13;;
23266;SDS011;11802;53.160;8.214;2023-04-03T00:23:56;4.00;;;1.40;;
23266;SDS011;11802;53.160;8.214;2023-04-03T00:26:22;7.40;;;2.00;;
23266;SDS011;11802;53.160;8.214;2023-04-03T00:28:47;5.60;;;1.87;;
23266;SDS011;11802;53.160;8.214;2023-04-03T00:31:14;5.03;;;1.93;;
23266;SDS011;11802;53.160;8.214;2023-04-03T00:33:41;6.07;;;1.90;;
23266;SDS011;11802;53.160;8.214;2023-04-03T00:36:07;4.63;;;1.80;;
23266;SDS011;11802;53.160;8.214;2023-04-03T00:38:34;5.20;;;1.87;;
23266;SDS011;11802;53.160;8.214;2023-04-03T00:41:00;8.60;;;2.30;;
23266;SDS011;11802;53.160;8.214;2023-04-03T00:43:25;8.93;;;2.10;;
23266;SDS011;11802;53.160;8.214;2023-04-03T00:45:52;4.93;;;1.70;;
23266;SDS011;11802;53.160;8.214;2023-04-03T00:48:20;7.10;;;2.03;;
23266;SDS011;11802;53.160;8.214;2023-04-03T00:50:52;4.73;;;1.77;;
23266;SDS011;11802;53.160;8.214;2023-04-03T00:53:21;7.37;;;2.03;;
23266;SDS011;11802;53.160;8.214;2023-04-03T00:55:50;5.67;;;2.13;;
23266;SDS011;11802;53.160;8.214;2023-04-03T00:58:17;6.67;;;2.30;;
23266;SDS011;11802;53.160;8.214;2023-04-03T01:00:48;4.23;;;1.93;;
23266;SDS011;11802;53.160;8.214;2023-04-03T01:03:21;8.10;;;2.17;;
23266;SDS011;11802;53.160;8.214;2023-04-03T01:05:46;7.33;;;2.40;;
23266;SDS011;11802;53.160;8.214;2023-04-03T01:08:12;7.93;;;1.73;;
23266;SDS011;11802;53.160;8.214;2023-04-03T01:10:37;5.10;;;2.03;;
23266;SDS011;11802;53.160;8.214;2023-04-03T01:13:16;6.63;;;2.27;;
23266;SDS011;11802;53.160;8.214;2023-04-03T01:15:44;8.87;;;2.30;;
23266;SDS011;11802;53.160;8.214;2023-04-03T01:18:10;5.67;;;2.17;;
23266;SDS011;11802;53.160;8.214;2023-04-03T01:20:41;8.87;;;2.00;;
23266;SDS011;11802;53.160;8.214;2023-04-03T01:23:19;8.43;;;2.23;;
23266;SDS011;11802;53.160;8.214;2023-04-03T01:26:03;7.07;;;2.00;;
23266;SDS011;11802;53.160;8.214;2023-04-03T01:28:33;5.70;;;2.10;;
23266;SDS011;11802;53.160;8.214;2023-04-03T01:33:49;11.73;;;2.43;;
23266;SDS011;11802;53.160;8.214;2023-04-03T01:36:20;4.60;;;2.03;;
23266;SDS011;11802;53.160;8.214;2023-04-03T01:38:48;6.00;;;2.20;;
23266;SDS011;11802;53.160;8.214;2023-04-03T01:41:13;7.17;;;2.20;;
23266;SDS011;11802;53.160;8.214;2023-04-03T01:43:40;5.53;;;2.33;;
23266;SDS011;11802;53.160;8.214;2023-04-03T01:46:06;6.83;;;2.50;;
23266;SDS011;11802;53.160;8.214;2023-04-03T01:48:32;6.10;;;2.10;;
23266;SDS011;11802;53.160;8.214;2023-04-03T01:50:58;6.13;;;2.30;;
23266;SDS011;11802;53.160;8.214;2023-04-03T01:53:23;7.17;;;2.60;;
23266;SDS011;11802;53.160;8.214;2023-04-03T01:55:49;7.97;;;2.60;;
23266;SDS011;11802;53.160;8.214;2023-04-03T01:58:15;9.83;;;2.40;;
23266;SDS011;11802;53.160;8.214;2023-04-03T02:00:40;8.47;;;2.23;;
23266;SDS011;11802;53.160;8.214;2023-04-03T02:03:06;6.83;;;3.23;;
23266;SDS011;11802;53.160;8.214;2023-04-03T02:05:32;6.17;;;2.63;;
23266;SDS011;11802;53.160;8.214;2023-04-03T02:07:57;5.17;;;2.33;;
23266;SDS011;11802;53.160;8.214;2023-04-03T02:10:23;8.13;;;2.80;;
23266;SDS011;11802;53.160;8.214;2023-04-03T02:12:49;6.57;;;2.67;;
23266;SDS011;11802;53.160;8.214;2023-04-03T02:15:14;8.33;;;2.57;;
23266;SDS011;11802;53.160;8.214;2023-04-03T02:17:40;7.77;;;2.57;;
23266;SDS011;11802;53.160;8.214;2023-04-03T02:20:06;7.13;;;2.67;;
23266;SDS011;11802;53.160;8.214;2023-04-03T02:22:32;8.50;;;3.03;;
23266;SDS011;11802;53.160;8.214;2023-04-03T02:24:57;10.17;;;2.80;;
23266;SDS011;11802;53.160;8.214;2023-04-03T02:27:23;7.70;;;2.33;;
23266;SDS011;11802;53.160;8.214;2023-04-03T02:29:48;9.20;;;2.40;;
23266;SDS011;11802;53.160;8.214;2023-04-03T02:32:14;5.63;;;2.63;;
23266;SDS011;11802;53.160;8.214;2023-04-03T02:34:40;8.10;;;3.03;;
23266;SDS011;11802;53.160;8.214;2023-04-03T02:37:06;6.60;;;2.53;;
23266;SDS011;11802;53.160;8.214;2023-04-03T02:39:33;7.70;;;2.67;;
23266;SDS011;11802;53.160;8.214;2023-04-03T02:41:59;8.20;;;2.70;;
23266;SDS011;11802;53.160;8.214;2023-04-03T02:44:25;6.70;;;2.20;;
23266;SDS011;11802;53.160;8.214;2023-04-03T02:46:50;9.33;;;2.63;;
23266;SDS011;11802;53.160;8.214;2023-04-03T02:49:16;8.57;;;2.57;;
23266;SDS011;11802;53.160;8.214;2023-04-03T02:51:41;8.40;;;2.47;;
23266;SDS011;11802;53.160;8.214;2023-04-03T02:54:07;7.87;;;2.70;;
23266;SDS011;11802;53.160;8.214;2023-04-03T02:56:33;8.03;;;2.87;;
23266;SDS011;11802;53.160;8.214;2023-04-03T02:58:58;6.60;;;2.60;;
23266;SDS011;11802;53.160;8.214;2023-04-03T03:01:24;8.63;;;2.63;;
23266;SDS011;11802;53.160;8.214;2023-04-03T03:03:51;6.63;;;2.80;;
23266;SDS011;11802;53.160;8.214;2023-04-03T03:06:17;9.00;;;3.10;;
23266;SDS011;11802;53.160;8.214;2023-04-03T03:08:43;6.03;;;2.73;;
23266;SDS011;11802;53.160;8.214;2023-04-03T03:11:09;6.10;;;2.50;;
23266;SDS011;11802;53.160;8.214;2023-04-03T03:13:35;8.67;;;2.80;;
23266;SDS011;11802;53.160;8.214;2023-04-03T03:16:01;8.50;;;2.30;;
23266;SDS011;11802;53.160;8.214;2023-04-03T03:18:27;9.07;;;2.50;;
23266;SDS011;11802;53.160;8.214;2023-04-03T03:20:53;13.53;;;3.00;;
23266;SDS011;11802;53.160;8.214;2023-04-03T03:23:21;6.10;;;2.53;;
23266;SDS011;11802;53.160;8.214;2023-04-03T03:25:47;9.10;;;2.70;;
23266;SDS011;11802;53.160;8.214;2023-04-03T03:28:13;7.10;;;2.60;;
23266;SDS011;11802;53.160;8.214;2023-04-03T03:30:39;5.90;;;2.60;;
23266;SDS011;11802;53.160;8.214;2023-04-03T03:33:05;9.27;;;2.70;;
23266;SDS011;11802;53.160;8.214;2023-04-03T03:35:30;10.93;;;2.83;;
23266;SDS011;11802;53.160;8.214;2023-04-03T03:37:56;10.63;;;2.67;;
23266;SDS011;11802;53.160;8.214;2023-04-03T03:40:22;5.90;;;2.83;;
23266;SDS011;11802;53.160;8.214;2023-04-03T03:42:47;9.17;;;2.97;;
23266;SDS011;11802;53.160;8.214;2023-04-03T03:45:13;6.83;;;2.80;;
23266;SDS011;11802;53.160;8.214;2023-04-03T03:47:38;9.87;;;2.97;;
23266;SDS011;11802;53.160;8.214;2023-04-03T03:50:05;7.93;;;2.97;;
23266;SDS011;11802;53.160;8.214;2023-04-03T03:52:31;12.17;;;2.73;;
23266;SDS011;11802;53.160;8.214;2023-04-03T03:54:56;7.40;;;2.57;;
23266;SDS011;11802;53.160;8.214;2023-04-03T03:57:22;9.43;;;2.70;;
23266;SDS011;11802;53.160;8.214;2023-04-03T03:59:48;6.43;;;2.57;;
23266;SDS011;11802;53.160;8.214;2023-04-03T04:02:13;7.70;;;2.90;;
23266;SDS011;11802;53.160;8.214;2023-04-03T04:04:39;6.10;;;2.80;;
23266;SDS011;11802;53.160;8.214;2023-04-03T04:07:05;6.80;;;2.80;;
23266;SDS011;11802;53.160;8.214;2023-04-03T04:09:31;8.03;;;3.07;;
23266;SDS011;11802;53.160;8.214;2023-04-03T04:11:56;6.60;;;2.40;;
23266;SDS011;11802;53.160;8.214;2023-04-03T04:14:22;9.00;;;3.10;;
23266;SDS011;11802;53.160;8.214;2023-04-03T04:16:47;9.83;;;2.70;;
23266;SDS011;11802;53.160;8.214;2023-04-03T04:19:13;7.20;;;2.73;;
23266;SDS011;11802;53.160;8.214;2023-04-03T04:21:40;8.73;;;2.87;;
23266;SDS011;11802;53.160;8.214;2023-04-03T04:24:06;10.30;;;3.00;;
23266;SDS011;11802;53.160;8.214;2023-04-03T04:26:32;5.47;;;2.80;;
23266;SDS011;11802;53.160;8.214;2023-04-03T04:28:58;7.07;;;2.83;;
23266;SDS011;11802;53.160;8.214;2023-04-03T04:31:23;7.80;;;2.60;;
23266;SDS011;11802;53.160;8.214;2023-04-03T04:33:49;7.47;;;2.80;;
23266;SDS011;11802;53.160;8.214;2023-04-03T04:36:15;11.23;;;3.33;;
23266;SDS011;11802;53.160;8.214;2023-04-03T04:38:40;6.40;;;2.50;;
23266;SDS011;11802;53.160;8.214;2023-04-03T04:41:06;9.13;;;2.93;;
23266;SDS011;11802;53.160;8.214;2023-04-03T04:43:32;9.53;;;3.23;;
23266;SDS011;11802;53.160;8.214;2023-04-03T04:46:05;6.40;;;3.23;;
23266;SDS011;11802;53.160;8.214;2023-04-03T04:48:36;10.37;;;3.30;;
23266;SDS011;11802;53.160;8.214;2023-04-03T04:51:02;8.53;;;3.17;;
23266;SDS011;11802;53.160;8.214;2023-04-03T04:53:28;12.60;;;2.97;;
23266;SDS011;11802;53.160;8.214;2023-04-03T04:55:54;8.63;;;2.63;;
23266;SDS011;11802;53.160;8.214;2023-04-03T04:58:20;8.20;;;3.27;;
23266;SDS011;11802;53.160;8.214;2023-04-03T05:00:46;7.03;;;2.90;;
23266;SDS011;11802;53.160;8.214;2023-04-03T05:03:12;10.00;;;3.43;;
23266;SDS011;11802;53.160;8.214;2023-04-03T05:05:37;9.77;;;3.30;;
23266;SDS011;11802;53.160;8.214;2023-04-03T05:08:03;10.13;;;3.40;;
23266;SDS011;11802;53.160;8.214;2023-04-03T05:10:29;7.27;;;3.20;;
23266;SDS011;11802;53.160;8.214;2023-04-03T05:12:56;4.87;;;2.43;;
23266;SDS011;11802;53.160;8.214;2023-04-03T05:15:22;7.93;;;3.23;;
23266;SDS011;11802;53.160;8.214;2023-04-03T05:17:47;11.37;;;4.10;;
23266;SDS011;11802;53.160;8.214;2023-04-03T05:20:13;9.20;;;3.30;;
23266;SDS011;11802;53.160;8.214;2023-04-03T05:22:38;12.37;;;3.47;;
23266;SDS011;11802;53.160;8.214;2023-04-03T05:25:04;7.53;;;3.10;;
23266;SDS011;11802;53.160;8.214;2023-04-03T05:27:30;10.73;;;3.30;;
23266;SDS011;11802;53.160;8.214;2023-04-03T05:29:56;9.60;;;3.13;;
23266;SDS011;11802;53.160;8.214;2023-04-03T05:32:22;10.33;;;3.30;;
23266;SDS011;11802;53.160;8.214;2023-04-03T05:34:48;9.00;;;3.47;;
23266;SDS011;11802;53.160;8.214;2023-04-03T05:37:13;8.57;;;3.10;;
23266;SDS011;11802;53.160;8.214;2023-04-03T05:39:39;8.40;;;3.10;;
23266;SDS011;11802;53.160;8.214;2023-04-03T05:42:05;8.40;;;3.10;;
23266;SDS011;11802;53.160;8.214;2023-04-03T05:44:32;8.30;;;2.97;;
23266;SDS011;11802;53.160;8.214;2023-04-03T05:46:57;8.10;;;2.70;;
23266;SDS011;11802;53.160;8.214;2023-04-03T05:49:23;10.23;;;2.97;;
23266;SDS011;11802;53.160;8.214;2023-04-03T05:51:49;9.60;;;2.80;;
23266;SDS011;11802;53.160;8.214;2023-04-03T05:54:20;6.50;;;2.50;;
23266;SDS011;11802;53.160;8.214;2023-04-03T05:56:49;5.87;;;2.70;;
23266;SDS011;11802;53.160;8.214;2023-04-03T05:59:15;10.03;;;3.03;;
23266;SDS011;11802;53.160;8.214;2023-04-03T06:01:41;8.47;;;3.07;;
23266;SDS011;11802;53.160;8.214;2023-04-03T06:04:07;7.03;;;2.80;;
23266;SDS011;11802;53.160;8.214;2023-04-03T06:06:50;10.03;;;2.93;;
23266;SDS011;11802;53.160;8.214;2023-04-03T06:09:21;8.37;;;2.53;;
23266;SDS011;11802;53.160;8.214;2023-04-03T06:11:48;8.07;;;3.00;;
23266;SDS011;11802;53.160;8.214;2023-04-03T06:14:15;7.47;;;2.87;;
23266;SDS011;11802;53.160;8.214;2023-04-03T06:16:41;7.97;;;3.27;;
23266;SDS011;11802;53.160;8.214;2023-04-03T06:19:09;8.53;;;2.97;;
23266;SDS011;11802;53.160;8.214;2023-04-03T06:21:35;5.23;;;2.53;;
23266;SDS011;11802;53.160;8.214;2023-04-03T06:24:06;6.60;;;2.60;;
23266;SDS011;11802;53.160;8.214;2023-04-03T06:26:31;7.40;;;2.97;;
23266;SDS011;11802;53.160;8.214;2023-04-03T06:28:58;8.27;;;2.87;;
23266;SDS011;11802;53.160;8.214;2023-04-03T06:31:23;6.57;;;2.97;;
23266;SDS011;11802;53.160;8.214;2023-04-03T06:33:49;8.50;;;2.80;;
23266;SDS011;11802;53.160;8.214;2023-04-03T06:36:17;6.50;;;2.73;;
23266;SDS011;11802;53.160;8.214;2023-04-03T06:38:47;6.47;;;2.80;;
23266;SDS011;11802;53.160;8.214;2023-04-03T06:41:13;8.73;;;3.37;;
23266;SDS011;11802;53.160;8.214;2023-04-03T06:43:39;8.13;;;2.90;;
23266;SDS011;11802;53.160;8.214;2023-04-03T06:46:18;7.10;;;2.60;;
23266;SDS011;11802;53.160;8.214;2023-04-03T06:48:46;8.97;;;3.10;;
23266;SDS011;11802;53.160;8.214;2023-04-03T06:51:19;9.07;;;3.70;;
23266;SDS011;11802;53.160;8.214;2023-04-03T06:53:53;9.40;;;3.83;;
23266;SDS011;11802;53.160;8.214;2023-04-03T06:56:21;8.60;;;4.13;;
23266;SDS011;11802;53.160;8.214;2023-04-03T06:58:47;10.37;;;4.03;;
23266;SDS011;11802;53.160;8.214;2023-04-03T07:01:15;6.28;;;3.15;;
23266;SDS011;11802;53.160;8.214;2023-04-03T07:03:41;6.97;;;2.90;;
23266;SDS011;11802;53.160;8.214;2023-04-03T07:06:08;7.47;;;3.30;;
23266;SDS011;11802;53.160;8.214;2023-04-03T07:08:36;8.10;;;2.90;;
23266;SDS011;11802;53.160;8.214;2023-04-03T07:11:02;7.60;;;2.97;;
23266;SDS011;11802;53.160;8.214;2023-04-03T07:13:28;8.17;;;2.93;;
23266;SDS011;11802;53.160;8.214;2023-04-03T07:15:54;6.97;;;2.30;;
23266;SDS011;11802;53.160;8.214;2023-04-03T07:18:19;6.77;;;2.70;;
23266;SDS011;11802;53.160;8.214;2023-04-03T07:20:46;8.23;;;3.20;;
23266;SDS011;11802;53.160;8.214;2023-04-03T07:23:11;5.80;;;2.70;;
23266;SDS011;11802;53.160;8.214;2023-04-03T07:25:42;9.43;;;3.23;;
23266;SDS011;11802;53.160;8.214;2023-04-03T07:28:09;10.07;;;2.60;;
23266;SDS011;11802;53.160;8.214;2023-04-03T07:30:34;7.30;;;2.72;;
23266;SDS011;11802;53.160;8.214;2023-04-03T07:33:00;7.75;;;2.60;;
23266;SDS011;11802;53.160;8.214;2023-04-03T07:35:26;6.03;;;2.60;;
23266;SDS011;11802;53.160;8.214;2023-04-03T07:37:52;6.65;;;2.60;;
23266;SDS011;11802;53.160;8.214;2023-04-03T07:40:18;6.65;;;2.15;;
23266;SDS011;11802;53.160;8.214;2023-04-03T07:42:43;5.10;;;2.28;;
23266;SDS011;11802;53.160;8.214;2023-04-03T07:45:09;4.57;;;2.38;;
23266;SDS011;11802;53.160;8.214;2023-04-03T07:47:35;7.60;;;2.50;;
23266;SDS011;11802;53.160;8.214;2023-04-03T07:50:01;7.00;;;2.28;;
23266;SDS011;11802;53.160;8.214;2023-04-03T07:52:26;6.28;;;2.40;;
23266;SDS011;11802;53.160;8.214;2023-04-03T07:54:52;7.85;;;2.53;;
23266;SDS011;11802;53.160;8.214;2023-04-03T07:57:17;6.82;;;2.45;;
23266;SDS011;11802;53.160;8.214;2023-04-03T07:59:43;4.78;;;2.00;;
23266;SDS011;11802;53.160;8.214;2023-04-03T08:02:11;7.72;;;2.58;;
23266;SDS011;11802;53.160;8.214;2023-04-03T08:04:37;6.68;;;2.20;;
23266;SDS011;11802;53.160;8.214;2023-04-03T08:07:03;7.82;;;2.50;;
23266;SDS011;11802;53.160;8.214;2023-04-03T08:09:28;5.40;;;2.03;;
23266;SDS011;11802;53.160;8.214;2023-04-03T08:11:54;6.22;;;1.85;;
23266;SDS011;11802;53.160;8.214;2023-04-03T08:14:20;9.17;;;2.80;;
23266;SDS011;11802;53.160;8.214;2023-04-03T08:16:47;5.18;;;2.10;;
23266;SDS011;11802;53.160;8.214;2023-04-03T08:19:13;7.90;;;2.20;;
23266;SDS011;11802;53.160;8.214;2023-04-03T08:21:40;7.20;;;2.35;;
23266;SDS011;11802;53.160;8.214;2023-04-03T08:24:06;8.73;;;2.50;;
23266;SDS011;11802;53.160;8.214;2023-04-03T08:26:33;8.27;;;2.47;;
23266;SDS011;11802;53.160;8.214;2023-04-03T08:28:58;6.63;;;2.60;;
23266;SDS011;11802;53.160;8.214;2023-04-03T08:31:24;5.67;;;2.00;;
23266;SDS011;11802;53.160;8.214;2023-04-03T08:33:50;6.53;;;2.13;;
23266;SDS011;11802;53.160;8.214;2023-04-03T08:36:19;4.40;;;1.97;;
23266;SDS011;11802;53.160;8.214;2023-04-03T08:38:50;5.30;;;2.30;;
23266;SDS011;11802;53.160;8.214;2023-04-03T08:41:20;5.37;;;1.93;;
23266;SDS011;11802;53.160;8.214;2023-04-03T08:49:41;4.50;;;2.03;;
23266;SDS011;11802;53.160;8.214;2023-04-03T08:52:15;5.27;;;1.70;;
23266;SDS011;11802;53.160;8.214;2023-04-03T08:54:54;3.10;;;1.40;;
23266;SDS011;11802;53.160;8.214;2023-04-03T08:57:40;2.90;;;1.10;;
23266;SDS011;11802;53.160;8.214;2023-04-03T09:00:17;2.43;;;1.20;;
23266;SDS011;11802;53.160;8.214;2023-04-03T09:02:52;6.23;;;1.80;;
23266;SDS011;11802;53.160;8.214;2023-04-03T09:05:21;3.77;;;1.47;;
23266;SDS011;11802;53.160;8.214;2023-04-03T09:08:12;4.20;;;1.43;;
23266;SDS011;11802;53.160;8.214;2023-04-03T09:10:39;6.20;;;1.87;;
23266;SDS011;11802;53.160;8.214;2023-04-03T09:13:08;4.37;;;1.70;;
23266;SDS011;11802;53.160;8.214;2023-04-03T09:15:49;7.50;;;1.67;;
23266;SDS011;11802;53.160;8.214;2023-04-03T09:18:19;4.57;;;1.67;;
23266;SDS011;11802;53.160;8.214;2023-04-03T09:20:51;7.07;;;1.87;;
23266;SDS011;11802;53.160;8.214;2023-04-03T09:23:54;8.83;;;1.80;;
23266;SDS011;11802;53.160;8.214;2023-04-03T09:26:25;6.03;;;1.80;;
23266;SDS011;11802;53.160;8.214;2023-04-03T09:28:55;7.60;;;1.80;;
23266;SDS011;11802;53.160;8.214;2023-04-03T09:31:26;4.40;;;1.40;;
23266;SDS011;11802;53.160;8.214;2023-04-03T09:33:54;6.20;;;2.10;;
23266;SDS011;11802;53.160;8.214;2023-04-03T09:39:20;6.27;;;1.77;;
23266;SDS011;11802;53.160;8.214;2023-04-03T09:41:58;4.30;;;1.33;;
23266;SDS011;11802;53.160;8.214;2023-04-03T09:44:37;5.37;;;1.20;;
23266;SDS011;11802;53.160;8.214;2023-04-03T09:49:49;3.83;;;1.30;;
23266;SDS011;11802;53.160;8.214;2023-04-03T09:52:25;4.17;;;1.20;;
23266;SDS011;11802;53.160;8.214;2023-04-03T09:54:51;3.83;;;1.30;;
23266;SDS011;11802;53.160;8.214;2023-04-03T09:57:17;3.93;;;1.20;;
23266;SDS011;11802;53.160;8.214;2023-04-03T10:05:00;3.57;;;1.57;;
23266;SDS011;11802;53.160;8.214;2023-04-03T10:07:30;6.57;;;1.63;;
23266;SDS011;11802;53.160;8.214;2023-04-03T10:10:20;3.70;;;1.47;;
23266;SDS011;11802;53.160;8.214;2023-04-03T10:13:03;3.07;;;1.20;;
23266;SDS011;11802;53.160;8.214;2023-04-03T10:15:59;3.37;;;1.60;;
23266;SDS011;11802;53.160;8.214;2023-04-03T10:18:39;3.90;;;1.63;;
23266;SDS011;11802;53.160;8.214;2023-04-03T10:21:15;3.30;;;1.23;;
23266;SDS011;11802;53.160;8.214;2023-04-03T10:23:48;2.57;;;1.30;;
23266;SDS011;11802;53.160;8.214;2023-04-03T10:29:40;3.00;;;1.30;;
23266;SDS011;11802;53.160;8.214;2023-04-03T10:34:48;4.83;;;1.10;;
23266;SDS011;11802;53.160;8.214;2023-04-03T10:37:48;4.20;;;1.10;;
23266;SDS011;11802;53.160;8.214;2023-04-03T10:40:37;2.63;;;1.10;;
23266;SDS011;11802;53.160;8.214;2023-04-03T10:43:10;3.70;;;1.33;;
23266;SDS011;11802;53.160;8.214;2023-04-03T10:46:04;2.87;;;1.20;;
23266;SDS011;11802;53.160;8.214;2023-04-03T10:48:49;3.83;;;1.10;;
23266;SDS011;11802;53.160;8.214;2023-04-03T10:51:28;4.03;;;1.10;;
23266;SDS011;11802;53.160;8.214;2023-04-03T10:54:05;2.80;;;1.20;;
23266;SDS011;11802;53.160;8.214;2023-04-03T10:59:18;3.27;;;1.40;;
23266;SDS011;11802;53.160;8.214;2023-04-03T11:01:51;4.43;;;1.40;;
23266;SDS011;11802;53.160;8.214;2023-04-03T11:04:20;5.17;;;1.20;;
23266;SDS011;11802;53.160;8.214;2023-04-03T11:06:56;5.40;;;1.30;;
23266;SDS011;11802;53.160;8.214;2023-04-03T11:09:27;2.33;;;1.10;;
23266;SDS011;11802;53.160;8.214;2023-04-03T11:14:54;2.90;;;1.13;;
23266;SDS011;11802;53.160;8.214;2023-04-03T11:17:26;2.83;;;0.93;;
23266;SDS011;11802;53.160;8.214;2023-04-03T11:20:04;2.07;;;0.90;;
23266;SDS011;11802;53.160;8.214;2023-04-03T11:22:56;3.37;;;1.00;;
23266;SDS011;11802;53.160;8.214;2023-04-03T11:25:26;1.93;;;1.03;;
23266;SDS011;11802;53.160;8.214;2023-04-03T11:28:01;4.67;;;1.20;;
23266;SDS011;11802;53.160;8.214;2023-04-03T11:30:46;1.73;;;1.03;;
23266;SDS011;11802;53.160;8.214;2023-04-03T11:33:32;4.47;;;1.10;;
23266;SDS011;11802;53.160;8.214;2023-04-03T11:36:09;2.57;;;0.90;;
23266;SDS011;11802;53.160;8.214;2023-04-03T11:38:44;2.43;;;1.30;;
23266;SDS011;11802;53.160;8.214;2023-04-03T11:41:12;3.47;;;0.80;;
23266;SDS011;11802;53.160;8.214;2023-04-03T11:43:42;2.80;;;0.90;;
23266;SDS011;11802;53.160;8.214;2023-04-03T12:05:49;1.90;;;1.00;;
23266;SDS011;11802;53.160;8.214;2023-04-03T12:13:37;3.70;;;1.00;;
23266;SDS011;11802;53.160;8.214;2023-04-03T12:16:03;4.13;;;1.30;;
23266;SDS011;11802;53.160;8.214;2023-04-03T12:18:31;1.70;;;0.73;;
23266;SDS011;11802;53.160;8.214;2023-04-03T12:20:57;2.20;;;0.97;;
23266;SDS011;11802;53.160;8.214;2023-04-03T12:23:33;3.10;;;1.17;;
23266;SDS011;11802;53.160;8.214;2023-04-03T12:26:03;2.57;;;1.07;;
23266;SDS011;11802;53.160;8.214;2023-04-03T12:28:44;2.17;;;1.10;;
23266;SDS011;11802;53.160;8.214;2023-04-03T12:31:11;4.67;;;1.03;;
23266;SDS011;11802;53.160;8.214;2023-04-03T12:33:58;1.33;;;0.80;;
23266;SDS011;11802;53.160;8.214;2023-04-03T12:42:25;2.33;;;0.90;;
23266;SDS011;11802;53.160;8.214;2023-04-03T12:45:24;3.63;;;1.30;;
23266;SDS011;11802;53.160;8.214;2023-04-03T12:47:51;5.10;;;1.17;;
23266;SDS011;11802;53.160;8.214;2023-04-03T12:52:51;1.80;;;1.00;;
23266;SDS011;11802;53.160;8.214;2023-04-03T12:55:22;3.03;;;1.47;;
23266;SDS011;11802;53.160;8.214;2023-04-03T12:57:48;2.63;;;1.00;;
23266;SDS011;11802;53.160;8.214;2023-04-03T13:00:30;2.73;;;1.20;;
23266;SDS011;11802;53.160;8.214;2023-04-03T13:03:01;2.90;;;0.80;;
23266;SDS011;11802;53.160;8.214;2023-04-03T13:05:28;2.77;;;1.00;;
23266;SDS011;11802;53.160;8.214;2023-04-03T13:07:58;1.83;;;0.80;;
23266;SDS011;11802;53.160;8.214;2023-04-03T13:10:27;5.77;;;1.10;;
23266;SDS011;11802;53.160;8.214;2023-04-03T13:12:53;2.23;;;1.13;;
23266;SDS011;11802;53.160;8.214;2023-04-03T13:15:26;2.83;;;1.20;;
23266;SDS011;11802;53.160;8.214;2023-04-03T13:17:54;3.23;;;1.27;;
23266;SDS011;11802;53.160;8.214;2023-04-03T13:20:22;3.27;;;1.13;;
23266;SDS011;11802;53.160;8.214;2023-04-03T13:22:57;3.10;;;1.20;;
23266;SDS011;11802;53.160;8.214;2023-04-03T13:25:27;4.73;;;1.10;;
23266;SDS011;11802;53.160;8.214;2023-04-03T13:27:56;3.63;;;1.10;;
23266;SDS011;11802;53.160;8.214;2023-04-03T13:32:55;3.30;;;1.10;;
23266;SDS011;11802;53.160;8.214;2023-04-03T13:38:00;2.60;;;1.50;;
23266;SDS011;11802;53.160;8.214;2023-04-03T13:40:49;2.00;;;0.93;;
23266;SDS011;11802;53.160;8.214;2023-04-03T13:43:20;1.73;;;1.00;;
23266;SDS011;11802;53.160;8.214;2023-04-03T13:48:25;3.47;;;0.97;;
23266;SDS011;11802;53.160;8.214;2023-04-03T13:51:04;3.17;;;1.03;;
23266;SDS011;11802;53.160;8.214;2023-04-03T13:53:41;1.83;;;0.90;;
23266;SDS011;11802;53.160;8.214;2023-04-03T14:04:20;4.80;;;1.60;;
23266;SDS011;11802;53.160;8.214;2023-04-03T14:06:49;3.47;;;1.00;;
23266;SDS011;11802;53.160;8.214;2023-04-03T14:09:15;1.80;;;1.10;;
23266;SDS011;11802;53.160;8.214;2023-04-03T14:11:43;6.33;;;1.80;;
23266;SDS011;11802;53.160;8.214;2023-04-03T14:14:12;2.53;;;1.17;;
23266;SDS011;11802;53.160;8.214;2023-04-03T14:16:50;3.07;;;1.20;;
23266;SDS011;11802;53.160;8.214;2023-04-03T14:19:19;2.33;;;1.40;;
23266;SDS011;11802;53.160;8.214;2023-04-03T14:21:49;4.30;;;1.30;;
23266;SDS011;11802;53.160;8.214;2023-04-03T14:24:16;2.43;;;1.10;;
23266;SDS011;11802;53.160;8.214;2023-04-03T14:26:42;2.27;;;1.23;;
23266;SDS011;11802;53.160;8.214;2023-04-03T14:29:09;3.13;;;1.20;;
23266;SDS011;11802;53.160;8.214;2023-04-03T14:31:36;3.57;;;1.30;;
23266;SDS011;11802;53.160;8.214;2023-04-03T14:34:01;2.60;;;1.20;;
23266;SDS011;11802;53.160;8.214;2023-04-03T14:36:27;2.20;;;1.20;;
23266;SDS011;11802;53.160;8.214;2023-04-03T14:38:54;3.73;;;1.60;;
23266;SDS011;11802;53.160;8.214;2023-04-03T14:41:21;5.23;;;1.50;;
23266;SDS011;11802;53.160;8.214;2023-04-03T14:43:49;4.57;;;1.50;;
23266;SDS011;11802;53.160;8.214;2023-04-03T14:46:16;5.00;;;1.70;;
23266;SDS011;11802;53.160;8.214;2023-04-03T14:48:46;2.67;;;1.53;;
23266;SDS011;11802;53.160;8.214;2023-04-03T14:51:12;3.63;;;1.53;;
23266;SDS011;11802;53.160;8.214;2023-04-03T14:53:39;4.60;;;1.70;;
23266;SDS011;11802;53.160;8.214;2023-04-03T14:58:56;4.13;;;1.53;;
23266;SDS011;11802;53.160;8.214;2023-04-03T15:01:24;2.40;;;1.30;;
23266;SDS011;11802;53.160;8.214;2023-04-03T15:03:50;3.70;;;1.20;;
23266;SDS011;11802;53.160;8.214;2023-04-03T15:06:15;4.30;;;1.40;;
23266;SDS011;11802;53.160;8.214;2023-04-03T15:08:42;3.87;;;1.37;;
23266;SDS011;11802;53.160;8.214;2023-04-03T15:11:09;1.93;;;1.30;;
23266;SDS011;11802;53.160;8.214;2023-04-03T15:13:35;3.40;;;1.30;;
23266;SDS011;11802;53.160;8.214;2023-04-03T15:16:01;3.27;;;1.07;;
23266;SDS011;11802;53.160;8.214;2023-04-03T15:18:28;2.30;;;1.20;;
23266;SDS011;11802;53.160;8.214;2023-04-03T15:21:00;2.77;;;1.10;;
23266;SDS011;11802;53.160;8.214;2023-04-03T15:23:26;5.00;;;1.27;;
23266;SDS011;11802;53.160;8.214;2023-04-03T15:25:53;2.87;;;1.17;;
23266;SDS011;11802;53.160;8.214;2023-04-03T15:28:33;4.33;;;1.40;;
23266;SDS011;11802;53.160;8.214;2023-04-03T15:31:01;7.63;;;1.50;;
23266;SDS011;11802;53.160;8.214;2023-04-03T15:33:27;2.50;;;1.33;;
23266;SDS011;11802;53.160;8.214;2023-04-03T15:35:53;2.30;;;1.10;;
23266;SDS011;11802;53.160;8.214;2023-04-03T15:38:19;5.33;;;1.50;;
23266;SDS011;11802;53.160;8.214;2023-04-03T15:40:46;3.07;;;1.40;;
23266;SDS011;11802;53.160;8.214;2023-04-03T15:43:12;3.37;;;1.30;;
23266;SDS011;11802;53.160;8.214;2023-04-03T15:45:39;3.97;;;1.23;;
23266;SDS011;11802;53.160;8.214;2023-04-03T15:48:05;3.87;;;1.20;;
23266;SDS011;11802;53.160;8.214;2023-04-03T15:50:31;6.53;;;1.70;;
23266;SDS011;11802;53.160;8.214;2023-04-03T15:52:58;5.80;;;1.43;;
23266;SDS011;11802;53.160;8.214;2023-04-03T15:55:24;4.83;;;1.70;;
23266;SDS011;11802;53.160;8.214;2023-04-03T15:57:51;3.33;;;1.53;;
23266;SDS011;11802;53.160;8.214;2023-04-03T16:00:17;5.17;;;1.43;;
23266;SDS011;11802;53.160;8.214;2023-04-03T16:02:44;4.87;;;1.33;;
23266;SDS011;11802;53.160;8.214;2023-04-03T16:05:11;3.43;;;1.50;;
23266;SDS011;11802;53.160;8.214;2023-04-03T16:07:40;8.13;;;1.60;;
23266;SDS011;11802;53.160;8.214;2023-04-03T16:10:06;3.27;;;1.53;;
23266;SDS011;11802;53.160;8.214;2023-04-03T16:12:35;4.57;;;1.63;;
23266;SDS011;11802;53.160;8.214;2023-04-03T16:15:03;4.00;;;1.73;;
23266;SDS011;11802;53.160;8.214;2023-04-03T16:17:29;4.33;;;2.10;;
23266;SDS011;11802;53.160;8.214;2023-04-03T16:19:56;4.70;;;1.43;;
23266;SDS011;11802;53.160;8.214;2023-04-03T16:22:23;5.53;;;2.10;;